| Date | Time | Temp. (oF) | Dew Point (oF) | Rel. Hum. (%) | Press. (in.) | Wind Dir. | Wind Speed (mph) | Hourly Rainfall (in.) |
|
|---|---|---|---|---|---|---|---|---|---|
| 1 | 12/12 | 00:00 | 26 | 21 | 84 | 30.00 | S | 0 | 0.00 |
| 2 | 12/11 | 23:00 | 24 | 20 | 87 | 30.01 | S | 2 | 0.00 |
| 3 | 12/11 | 22:00 | 22 | 18 | 86 | 30.01 | S | 1 | 0.00 |
| 4 | 12/11 | 21:00 | 23 | 18 | 81 | 30.00 | S | 1 | 0.00 |
| 5 | 12/11 | 20:00 | 25 | 18 | 76 | 29.99 | S | 0 | 0.00 |
| 6 | 12/11 | 19:00 | 26 | 18 | 72 | 29.98 | SSE | 1 | 0.00 |
| 7 | 12/11 | 18:00 | 29 | 18 | 64 | 29.97 | WSW | 1 | 0.00 |
| 8 | 12/11 | 17:00 | 33 | 18 | 56 | 29.96 | WSW | 0 | 0.00 |
| 9 | 12/11 | 16:00 | 36 | 19 | 51 | 29.96 | W | 2 | 0.00 |
| 10 | 12/11 | 15:00 | 37 | 20 | 51 | 29.96 | WNW | 2 | 0.00 |
| 11 | 12/11 | 14:00 | 37 | 22 | 55 | 29.98 | S | 5 | 0.00 |
| 12 | 12/11 | 13:00 | 36 | 22 | 58 | 30.03 | SSW | 4 | 0.00 |
| 13 | 12/11 | 12:00 | 34 | 23 | 65 | 30.08 | SW | 7 | 0.00 |
| 14 | 12/11 | 11:00 | 31 | 25 | 79 | 30.11 | SSE | 4 | 0.00 |
| 15 | 12/11 | 10:00 | 28 | 25 | 92 | 30.14 | SSE | 1 | 0.00 |
| 16 | 12/11 | 09:00 | 20 | 19 | 98 | 30.15 | W | 1 | 0.00 |
| 17 | 12/11 | 08:00 | 15 | 14 | 97 | 30.15 | W | 1 | 0.00 |
| 18 | 12/11 | 07:00 | 15 | 14 | 97 | 30.16 | W | 0 | 0.00 |
| 19 | 12/11 | 06:00 | 16 | 15 | 96 | 30.16 | W | 0 | 0.00 |
| 20 | 12/11 | 05:00 | 16 | 15 | 96 | 30.16 | W | 0 | 0.00 |
| 21 | 12/11 | 04:00 | 17 | 16 | 96 | 30.17 | W | 1 | 0.00 |
| 22 | 12/11 | 03:00 | 18 | 16 | 95 | 30.18 | W | 0 | 0.00 |
| 23 | 12/11 | 02:00 | 19 | 17 | 94 | 30.17 | W | 0 | 0.00 |
| 24 | 12/11 | 01:00 | 19 | 17 | 92 | 30.17 | W | 0 | 0.00 |